createdAt,value
2018-08-19T00:05:48.369Z,23.6
2018-08-19T00:15:47.610Z,23.8
2018-08-19T00:25:46.853Z,23.8
2018-08-19T00:35:46.099Z,23.8
2018-08-19T00:45:45.348Z,23.8
2018-08-19T00:55:44.587Z,23.8
2018-08-19T01:05:43.832Z,23.7
2018-08-19T01:15:43.074Z,23.7
2018-08-19T01:25:42.317Z,23.6
2018-08-19T01:35:41.559Z,23.6
2018-08-19T01:45:40.802Z,23.5
2018-08-19T01:55:40.047Z,23.5
2018-08-19T02:05:39.289Z,23.4
2018-08-19T02:15:38.531Z,23.4
2018-08-19T02:25:37.774Z,23.3
2018-08-19T02:35:37.077Z,23.3
2018-08-19T02:45:36.262Z,23.3
2018-08-19T02:55:35.502Z,23.1
2018-08-19T03:05:34.746Z,23.1
2018-08-19T03:15:33.987Z,23.1
2018-08-19T03:25:33.235Z,23
2018-08-19T03:35:32.475Z,23
2018-08-19T03:45:31.717Z,22.9
2018-08-19T03:55:30.959Z,22.9
2018-08-19T04:05:30.207Z,22.8
2018-08-19T04:15:29.440Z,22.9
2018-08-19T04:25:28.684Z,22.9
2018-08-19T04:35:27.925Z,23.1
2018-08-19T04:45:27.167Z,23.3
2018-08-19T04:55:26.410Z,23.5
2018-08-19T05:05:25.652Z,23.8
2018-08-19T05:15:24.921Z,23.9
2018-08-19T05:25:24.134Z,24.2
2018-08-19T05:35:23.378Z,24.4
2018-08-19T05:45:22.624Z,24.7
2018-08-19T05:55:21.868Z,24.9
2018-08-19T06:05:21.108Z,25.1
2018-08-19T06:15:20.354Z,25.6
2018-08-19T06:25:19.594Z,26.3
2018-08-19T06:35:18.836Z,26.8
2018-08-19T06:45:18.081Z,26.6
2018-08-19T06:55:17.327Z,26.1
2018-08-19T07:05:16.568Z,27.4
2018-08-19T07:15:15.814Z,27.4
2018-08-19T07:25:15.058Z,27.4
2018-08-19T07:35:14.304Z,27.3
2018-08-19T07:45:13.549Z,28.1
2018-08-19T07:55:12.793Z,28.7
2018-08-19T08:05:12.040Z,19.7
2018-08-19T08:15:11.286Z,27.1
2018-08-19T08:25:10.532Z,25.9
2018-08-19T08:35:09.774Z,26.9
2018-08-19T08:45:09.020Z,24.2
2018-08-19T08:55:08.267Z,18.1
2018-08-19T09:05:07.508Z,24.1
2018-08-19T09:15:06.755Z,19.3
2018-08-19T09:25:05.999Z,13.7
2018-08-19T09:35:05.241Z,13.3
2018-08-19T09:45:04.488Z,12.3
2018-08-19T09:55:03.730Z,11.4
2018-08-19T10:05:02.978Z,12
2018-08-19T10:15:02.220Z,12.4
2018-08-19T10:25:01.467Z,11.8
2018-08-19T10:35:00.717Z,10.5
2018-08-19T10:44:59.959Z,10.5
2018-08-19T10:54:59.246Z,12.4
2018-08-19T11:04:58.441Z,12
2018-08-19T11:14:57.687Z,21.5
2018-08-19T11:24:56.929Z,22.5
2018-08-19T11:34:56.174Z,22.9
2018-08-19T11:44:55.418Z,23.1
2018-08-19T11:54:54.664Z,23.6
2018-08-19T12:04:53.913Z,23.8
2018-08-19T12:14:53.152Z,23.8
2018-08-19T12:24:52.392Z,23.9
2018-08-19T12:34:51.636Z,24.1
2018-08-19T12:44:50.902Z,24.1
2018-08-19T12:54:50.123Z,24.4
2018-08-19T13:04:49.368Z,24.5
2018-08-19T13:14:48.669Z,24.6
2018-08-19T13:24:47.861Z,24.6
2018-08-19T13:34:47.102Z,22.6
2018-08-19T13:44:46.348Z,23.3
2018-08-19T13:54:45.593Z,23.4
2018-08-19T14:04:44.844Z,23.4
2018-08-19T14:14:44.084Z,24.3
2018-08-19T14:24:43.329Z,24.8
2018-08-19T14:34:42.574Z,25
2018-08-19T14:44:41.920Z,25.2
2018-08-19T14:54:41.066Z,25.3
2018-08-19T15:04:40.313Z,25.3
2018-08-19T15:14:39.595Z,25.4
2018-08-19T15:24:38.806Z,25.5
2018-08-19T15:34:38.060Z,25.6
2018-08-19T15:44:37.299Z,25.6
2018-08-19T15:54:36.545Z,25.6
2018-08-19T16:04:35.791Z,25.6
2018-08-19T16:14:35.037Z,25.6
2018-08-19T16:24:34.283Z,25.6
2018-08-19T16:34:33.530Z,25.6
2018-08-19T16:44:32.777Z,25.6
2018-08-19T16:54:32.021Z,25.6
2018-08-19T17:04:31.267Z,25.6
2018-08-19T17:14:30.511Z,24.2
2018-08-19T17:24:29.756Z,23.9
2018-08-19T17:34:29.001Z,24.5
2018-08-19T17:44:28.246Z,23.9
2018-08-19T17:54:27.493Z,23.9
2018-08-19T18:04:26.734Z,24
2018-08-19T18:14:25.979Z,24.6
2018-08-19T18:24:25.231Z,24.6
2018-08-19T18:34:24.475Z,24.5
2018-08-19T18:44:23.721Z,24.7
2018-08-19T18:54:22.957Z,24.1
2018-08-19T19:04:22.205Z,23.4
2018-08-19T19:14:21.576Z,24.1
2018-08-19T19:24:20.689Z,23.6
2018-08-19T19:34:19.963Z,24.1
2018-08-19T19:44:19.176Z,23.1
2018-08-19T19:54:18.426Z,23.9
2018-08-19T20:04:17.664Z,24.1
2018-08-19T20:14:16.913Z,24.1
2018-08-19T20:24:16.156Z,23.9
2018-08-19T20:34:15.403Z,23.9
2018-08-19T20:44:14.645Z,23.9
2018-08-19T20:54:13.892Z,23.9
2018-08-19T21:04:13.129Z,23.8
2018-08-19T21:14:12.368Z,23.8
2018-08-19T21:24:11.622Z,23.8
2018-08-19T21:34:10.858Z,23.8
2018-08-19T21:44:10.108Z,23.6
2018-08-19T22:04:08.586Z,23.5
2018-08-19T22:14:07.828Z,22.4
2018-08-19T22:24:07.073Z,22.1
2018-08-19T22:34:06.318Z,21.9
2018-08-19T22:44:05.557Z,22.6
2018-08-19T22:54:04.799Z,22.9
2018-08-19T23:04:04.044Z,22.9
2018-08-19T23:14:03.288Z,21.2
2018-08-19T23:24:02.530Z,21.9
2018-08-19T23:34:01.771Z,22.2
2018-08-19T23:44:01.015Z,22.2
2018-08-19T23:54:00.259Z,22.1
